createdAt,value
2022-11-15T00:02:26.144Z,60
2022-11-15T00:04:59.030Z,56
2022-11-15T00:07:53.873Z,61
2022-11-15T00:10:03.854Z,60
2022-11-15T00:12:35.612Z,57
2022-11-15T00:15:07.625Z,63
2022-11-15T00:17:38.111Z,62
2022-11-15T00:20:09.788Z,61
2022-11-15T00:22:42.455Z,61
2022-11-15T00:25:16.380Z,68
2022-11-15T00:27:48.618Z,65
2022-11-15T00:30:20.829Z,60
2022-11-15T00:32:51.597Z,59
2022-11-15T00:35:24.805Z,59
2022-11-15T00:37:56.076Z,60
2022-11-15T00:40:27.090Z,62
2022-11-15T00:43:00.432Z,60
2022-11-15T00:45:31.559Z,59
2022-11-15T00:48:04.967Z,62
2022-11-15T00:50:38.665Z,63
2022-11-15T00:53:11.858Z,59
2022-11-15T00:55:44.794Z,56
2022-11-15T00:58:17.541Z,57
2022-11-15T01:00:50.131Z,60
2022-11-15T01:03:22.213Z,55
2022-11-15T01:06:00.152Z,56
2022-11-15T01:08:33.335Z,58
2022-11-15T01:11:06.069Z,65
2022-11-15T01:13:40.996Z,62
2022-11-15T01:16:11.858Z,56
2022-11-15T01:18:44.042Z,64
2022-11-15T01:21:17.831Z,60
2022-11-15T01:23:49.218Z,61
2022-11-15T01:26:24.789Z,57
2022-11-15T01:28:56.293Z,60
2022-11-15T01:31:28.619Z,56
2022-11-15T01:34:00.426Z,61
2022-11-15T01:36:33.642Z,56
2022-11-15T01:39:04.968Z,56
2022-11-15T01:41:35.862Z,56
2022-11-15T01:44:06.668Z,61
2022-11-15T01:46:39.259Z,61
2022-11-15T01:49:10.360Z,52
2022-11-15T01:51:43.185Z,56
2022-11-15T01:54:14.324Z,63
2022-11-15T01:56:46.023Z,58
2022-11-15T01:59:16.973Z,56
2022-11-15T02:01:47.895Z,62
2022-11-15T02:04:18.911Z,54
2022-11-15T02:06:49.670Z,59
2022-11-15T02:09:20.583Z,58
2022-11-15T02:11:55.743Z,56
2022-11-15T02:14:26.306Z,61
2022-11-15T02:19:36.486Z,68
2022-11-15T02:22:09.679Z,59
2022-11-15T02:24:42.199Z,64
2022-11-15T02:27:13.289Z,60
2022-11-15T02:29:44.266Z,56
2022-11-15T02:32:17.105Z,52
2022-11-15T02:34:48.182Z,66
2022-11-15T02:37:19.601Z,57
2022-11-15T02:39:53.717Z,55
2022-11-15T02:42:24.953Z,56
2022-11-15T02:44:58.314Z,56
2022-11-15T02:47:34.799Z,54
2022-11-15T02:50:07.120Z,60
2022-11-15T02:52:38.510Z,68
2022-11-15T02:55:10.202Z,62
2022-11-15T02:57:46.812Z,69
2022-11-15T03:00:20.422Z,79
2022-11-15T03:02:51.275Z,76
2022-11-15T03:05:23.813Z,82
2022-11-15T03:07:58.159Z,72
2022-11-15T03:10:26.449Z,80
2022-11-15T03:12:59.049Z,76
2022-11-15T03:15:30.883Z,81
2022-11-15T03:18:02.851Z,88
2022-11-15T03:20:36.173Z,88
2022-11-15T03:23:07.670Z,94
2022-11-15T03:25:40.971Z,91
2022-11-15T03:28:13.849Z,96
2022-11-15T03:30:44.525Z,95
2022-11-15T03:33:15.949Z,95
2022-11-15T03:35:50.323Z,115
2022-11-15T03:38:23.195Z,110
2022-11-15T03:40:54.789Z,104
2022-11-15T03:43:25.718Z,109
2022-11-15T03:45:56.749Z,109
2022-11-15T03:48:28.317Z,107
2022-11-15T03:51:01.458Z,106
2022-11-15T03:53:32.451Z,95
2022-11-15T03:56:03.260Z,93
2022-11-15T03:58:35.455Z,88
2022-11-15T04:01:06.954Z,86
2022-11-15T04:03:40.009Z,79
2022-11-15T04:06:11.069Z,77
2022-11-15T04:08:42.459Z,75
2022-11-15T04:11:14.119Z,83
2022-11-15T04:13:45.377Z,88
2022-11-15T04:16:17.881Z,88
2022-11-15T04:18:48.621Z,100
2022-11-15T04:21:19.707Z,95
2022-11-15T04:23:53.993Z,94
2022-11-15T04:26:26.822Z,89
2022-11-15T04:28:58.863Z,77
2022-11-15T04:31:29.747Z,72
2022-11-15T04:34:02.201Z,75
2022-11-15T04:36:33.444Z,81
2022-11-15T04:39:04.161Z,79
2022-11-15T04:41:35.010Z,76
2022-11-15T04:44:06.874Z,77
2022-11-15T04:46:37.595Z,76
2022-11-15T04:49:08.060Z,72
2022-11-15T04:51:39.132Z,72
2022-11-15T04:54:10.059Z,72
2022-11-15T04:56:43.119Z,73
2022-11-15T04:59:15.160Z,76
2022-11-15T05:01:47.145Z,70
2022-11-15T05:04:21.959Z,70
2022-11-15T05:06:53.285Z,56
2022-11-15T05:09:26.802Z,56
2022-11-15T05:11:58.708Z,68
2022-11-15T05:14:31.692Z,53
2022-11-15T05:17:04.942Z,57
2022-11-15T05:19:35.815Z,63
2022-11-15T05:22:07.505Z,64
2022-11-15T05:24:37.993Z,56
2022-11-15T05:27:19.214Z,60
2022-11-15T05:29:51.234Z,80
2022-11-15T05:32:26.792Z,67
2022-11-15T05:35:02.392Z,70
2022-11-15T05:37:34.961Z,64
2022-11-15T05:40:06.508Z,62
2022-11-15T05:42:38.102Z,52
2022-11-15T05:45:08.931Z,60
2022-11-15T05:47:40.825Z,70
2022-11-15T05:50:13.935Z,76
2022-11-15T05:52:47.288Z,64
2022-11-15T05:55:19.557Z,64
2022-11-15T05:57:55.845Z,76
2022-11-15T06:00:29.000Z,68
2022-11-15T06:03:00.858Z,65
2022-11-15T06:05:35.198Z,61
2022-11-15T06:08:12.198Z,73
2022-11-15T06:10:43.707Z,63
2022-11-15T06:13:19.539Z,69
2022-11-15T06:15:51.861Z,66
2022-11-15T06:18:24.289Z,62
2022-11-15T06:20:57.356Z,68
2022-11-15T06:23:27.497Z,63
2022-11-15T06:25:59.841Z,58
2022-11-15T06:28:30.740Z,60
2022-11-15T06:31:01.646Z,61
2022-11-15T06:33:34.168Z,64
2022-11-15T06:36:04.919Z,57
2022-11-15T06:38:37.421Z,57
2022-11-15T06:41:09.595Z,55
2022-11-15T06:43:40.196Z,52
2022-11-15T06:46:11.845Z,55
2022-11-15T06:48:43.234Z,69
2022-11-15T06:51:14.252Z,59
2022-11-15T06:53:45.380Z,52
2022-11-15T06:56:16.107Z,56
2022-11-15T06:58:47.071Z,51
2022-11-15T07:01:20.566Z,47
2022-11-15T07:03:57.101Z,55
2022-11-15T07:06:27.565Z,56
2022-11-15T07:08:59.207Z,60
2022-11-15T07:11:30.114Z,53
2022-11-15T07:14:02.060Z,57
2022-11-15T07:16:33.144Z,55
2022-11-15T07:19:05.627Z,51
2022-11-15T07:21:36.683Z,51
2022-11-15T07:24:12.189Z,55
2022-11-15T07:26:43.982Z,50
2022-11-15T07:29:15.072Z,56
2022-11-15T07:31:46.414Z,52
2022-11-15T07:34:17.541Z,51
2022-11-15T07:36:48.494Z,52
2022-11-15T07:39:21.417Z,56
2022-11-15T07:41:53.866Z,56
2022-11-15T07:44:25.591Z,55
2022-11-15T07:46:56.280Z,79
2022-11-15T07:49:27.074Z,64
2022-11-15T07:51:59.364Z,55
2022-11-15T07:54:32.937Z,59
2022-11-15T07:57:07.845Z,70
2022-11-15T07:59:42.345Z,74
2022-11-15T08:02:17.266Z,64
2022-11-15T08:04:47.861Z,60
2022-11-15T08:07:20.362Z,59
2022-11-15T08:09:52.262Z,60
2022-11-15T08:12:23.795Z,63
2022-11-15T08:14:55.214Z,57
2022-11-15T08:17:25.744Z,64
2022-11-15T08:19:58.817Z,56
2022-11-15T08:22:29.552Z,59
2022-11-15T08:25:01.767Z,58
2022-11-15T08:27:33.311Z,59
2022-11-15T08:30:04.224Z,63
2022-11-15T08:32:34.830Z,64
2022-11-15T08:35:03.761Z,68
2022-11-15T08:37:36.810Z,64
2022-11-15T08:40:07.586Z,64
2022-11-15T08:42:37.111Z,62
2022-11-15T08:45:09.424Z,61
2022-11-15T08:47:41.412Z,61
2022-11-15T08:50:12.548Z,71
2022-11-15T08:52:44.170Z,68
2022-11-15T08:55:16.863Z,64
2022-11-15T08:57:46.174Z,69
2022-11-15T09:00:18.575Z,68
2022-11-15T09:02:48.860Z,65
2022-11-15T09:05:19.766Z,59
2022-11-15T09:07:49.333Z,64
2022-11-15T09:10:19.757Z,68
2022-11-15T09:12:50.116Z,62
2022-11-15T09:15:22.100Z,61
2022-11-15T09:17:54.227Z,57
2022-11-15T09:20:24.656Z,62
2022-11-15T09:22:55.128Z,62
2022-11-15T09:25:28.606Z,53
2022-11-15T09:28:03.575Z,55
2022-11-15T09:30:34.947Z,52
2022-11-15T09:33:08.578Z,55
2022-11-15T09:35:39.346Z,59
2022-11-15T09:38:10.200Z,52
2022-11-15T09:40:41.991Z,65
2022-11-15T09:43:16.532Z,58
2022-11-15T09:45:47.790Z,52
2022-11-15T09:48:18.504Z,52
2022-11-15T09:50:48.097Z,60
2022-11-15T09:53:24.595Z,56
2022-11-15T09:55:50.361Z,59
2022-11-15T09:58:21.051Z,52
2022-11-15T10:00:52.130Z,58
2022-11-15T10:03:22.628Z,54
2022-11-15T10:05:55.339Z,49
2022-11-15T10:08:27.286Z,69
2022-11-15T10:11:30.329Z,58
2022-11-15T10:13:32.193Z,53
2022-11-15T10:16:03.016Z,54
2022-11-15T10:18:33.519Z,57
2022-11-15T10:21:05.089Z,56
2022-11-15T10:23:36.341Z,56
2022-11-15T10:26:09.076Z,60
2022-11-15T10:28:39.484Z,53
2022-11-15T10:31:14.352Z,54
2022-11-15T10:33:42.466Z,57
2022-11-15T10:36:11.903Z,51
2022-11-15T10:38:44.626Z,53
2022-11-15T10:41:15.238Z,56
2022-11-15T10:43:45.907Z,53
2022-11-15T10:46:39.722Z,52
2022-11-15T10:48:47.656Z,51
2022-11-15T10:51:21.042Z,49
2022-11-15T10:53:51.822Z,59
2022-11-15T10:56:22.740Z,52
2022-11-15T10:58:53.347Z,49
2022-11-15T11:01:23.971Z,52
2022-11-15T11:03:56.077Z,52
2022-11-15T11:06:26.299Z,49
2022-11-15T11:08:58.718Z,52
2022-11-15T11:11:29.419Z,52
2022-11-15T11:14:00.605Z,56
2022-11-15T11:16:37.852Z,52
2022-11-15T11:19:10.415Z,53
2022-11-15T11:21:40.927Z,56
2022-11-15T11:24:11.504Z,55
2022-11-15T11:26:41.697Z,56
2022-11-15T11:29:14.339Z,56
2022-11-15T11:31:45.828Z,59
2022-11-15T11:34:17.167Z,52
2022-11-15T11:36:48.237Z,56
2022-11-15T11:39:19.972Z,59
2022-11-15T11:41:50.341Z,60
2022-11-15T11:44:22.666Z,52
2022-11-15T11:46:53.587Z,60
2022-11-15T11:49:29.447Z,56
2022-11-15T11:52:03.215Z,63
2022-11-15T11:54:35.822Z,61
2022-11-15T11:57:06.920Z,64
2022-11-15T11:59:37.544Z,57
2022-11-15T12:02:08.367Z,58
2022-11-15T12:04:38.986Z,55
2022-11-15T12:07:09.624Z,52
2022-11-15T12:09:39.620Z,57
2022-11-15T12:12:10.227Z,59
2022-11-15T12:14:41.452Z,59
2022-11-15T12:17:11.760Z,56
2022-11-15T12:19:42.545Z,72
2022-11-15T12:22:17.828Z,60
2022-11-15T12:24:48.413Z,60
2022-11-15T12:27:26.455Z,64
2022-11-15T12:30:00.376Z,60
2022-11-15T12:32:32.381Z,64
2022-11-15T12:35:05.587Z,60
2022-11-15T12:37:36.160Z,56
2022-11-15T12:40:05.149Z,63
2022-11-15T12:42:38.789Z,59
2022-11-15T12:45:10.329Z,59
2022-11-15T12:47:41.115Z,61
2022-11-15T12:50:14.487Z,55
2022-11-15T12:52:45.235Z,57
2022-11-15T12:55:18.536Z,65
2022-11-15T12:57:49.202Z,60
2022-11-15T13:00:25.104Z,56
2022-11-15T13:02:53.087Z,60
2022-11-15T13:05:26.644Z,56
2022-11-15T13:07:59.017Z,68
2022-11-15T13:10:30.183Z,80
2022-11-15T13:13:02.119Z,76
2022-11-15T13:15:39.623Z,64
2022-11-15T13:18:08.173Z,68
2022-11-15T13:20:38.603Z,95
2022-11-15T13:23:09.280Z,65
2022-11-15T13:25:39.652Z,60
2022-11-15T13:28:10.504Z,71
2022-11-15T13:30:42.945Z,80
2022-11-15T13:33:14.534Z,63
2022-11-15T13:35:46.770Z,59
2022-11-15T13:38:19.012Z,73
2022-11-15T13:40:50.591Z,63
2022-11-15T13:43:25.233Z,65
2022-11-15T13:45:55.839Z,69
2022-11-15T13:48:30.294Z,70
2022-11-15T13:51:02.452Z,65
2022-11-15T13:53:34.426Z,68
2022-11-15T13:56:06.058Z,68
2022-11-15T13:58:38.250Z,65
2022-11-15T14:01:10.157Z,65
2022-11-15T14:03:40.301Z,88
2022-11-15T14:06:15.681Z,68
2022-11-15T14:08:46.521Z,68
2022-11-15T14:11:19.627Z,72
2022-11-15T14:13:50.448Z,68
2022-11-15T14:16:21.667Z,78
2022-11-15T14:18:51.943Z,66
2022-11-15T14:21:23.095Z,64
2022-11-15T14:23:53.302Z,65
2022-11-15T14:26:25.323Z,67
2022-11-15T14:28:58.394Z,68
2022-11-15T14:31:28.082Z,67
2022-11-15T14:34:00.748Z,68
2022-11-15T14:36:31.763Z,64
2022-11-15T14:39:02.392Z,64
2022-11-15T14:41:33.259Z,68
2022-11-15T14:44:05.792Z,66
2022-11-15T14:46:37.426Z,69
2022-11-15T14:49:09.196Z,69
2022-11-15T14:51:42.383Z,72
2022-11-15T14:54:15.113Z,76
2022-11-15T14:56:48.200Z,72
2022-11-15T14:59:18.629Z,70
2022-11-15T15:01:52.869Z,71
2022-11-15T15:04:23.777Z,70
2022-11-15T15:06:56.595Z,66
2022-11-15T15:09:28.273Z,74
2022-11-15T15:12:06.397Z,76
2022-11-15T15:14:34.736Z,76
2022-11-15T15:17:07.304Z,77
2022-11-15T15:19:40.505Z,80
2022-11-15T15:22:11.762Z,77
2022-11-15T15:24:44.064Z,80
2022-11-15T15:27:15.920Z,90
2022-11-15T15:29:49.674Z,123
2022-11-15T15:32:22.395Z,107
2022-11-15T15:34:59.050Z,102
2022-11-15T15:37:33.603Z,97
2022-11-15T15:40:04.243Z,92
2022-11-15T15:42:39.406Z,102
2022-11-15T15:45:10.241Z,99
2022-11-15T15:47:44.353Z,93
2022-11-15T15:50:16.676Z,105
2022-11-15T15:52:47.922Z,97
2022-11-15T15:55:20.911Z,98
2022-11-15T15:57:51.816Z,92
2022-11-15T16:00:25.040Z,88
2022-11-15T16:02:57.149Z,97
2022-11-15T16:05:31.213Z,92
2022-11-15T16:08:03.984Z,88
2022-11-15T16:10:38.462Z,88
2022-11-15T16:13:13.489Z,84
2022-11-15T16:15:46.728Z,87
2022-11-15T16:18:22.185Z,84
2022-11-15T16:20:54.314Z,83
2022-11-15T16:23:27.661Z,88
2022-11-15T16:26:01.428Z,89
2022-11-15T16:28:34.194Z,96
2022-11-15T16:31:07.436Z,99
2022-11-15T16:33:41.978Z,100
2022-11-15T16:36:10.965Z,101
2022-11-15T16:38:45.768Z,96
2022-11-15T16:41:17.674Z,91
2022-11-15T16:43:50.835Z,100
2022-11-15T16:46:22.041Z,101
2022-11-15T16:51:28.520Z,115
2022-11-15T16:53:59.422Z,112
2022-11-15T16:56:29.990Z,106
2022-11-15T16:59:07.079Z,106
2022-11-15T17:01:44.887Z,104
2022-11-15T17:04:20.417Z,118
2022-11-15T17:06:52.432Z,132
2022-11-15T17:09:23.013Z,143
2022-11-15T17:12:00.144Z,130
2022-11-15T17:14:38.604Z,132
2022-11-15T17:17:09.872Z,120
2022-11-15T17:19:42.570Z,120
2022-11-15T17:22:13.762Z,126
2022-11-15T17:24:45.992Z,124
2022-11-15T17:27:17.817Z,128
2022-11-15T17:29:50.237Z,125
2022-11-15T17:32:28.708Z,119
2022-11-15T17:35:00.007Z,131
2022-11-15T17:37:30.882Z,125
2022-11-15T17:40:03.710Z,142
2022-11-15T17:42:35.037Z,138
2022-11-15T17:45:09.826Z,144
2022-11-15T17:47:39.281Z,142
2022-11-15T17:50:10.787Z,143
2022-11-15T17:52:42.621Z,154
2022-11-15T17:55:15.481Z,156
2022-11-15T17:57:46.865Z,148
2022-11-15T18:00:17.531Z,164
2022-11-15T18:02:48.926Z,152
2022-11-15T18:05:21.933Z,166
2022-11-15T18:07:53.047Z,176
2022-11-15T18:10:29.342Z,178
2022-11-15T18:13:03.568Z,195
2022-11-15T18:15:36.845Z,175
2022-11-15T18:18:07.159Z,180
2022-11-15T18:20:38.429Z,172
2022-11-15T18:23:10.221Z,170
2022-11-15T18:25:41.355Z,173
2022-11-15T18:28:12.185Z,175
2022-11-15T18:30:45.513Z,174
2022-11-15T18:33:19.135Z,178
2022-11-15T18:35:52.766Z,195
2022-11-15T18:38:25.999Z,183
2022-11-15T18:40:57.291Z,181
2022-11-15T18:43:29.222Z,181
2022-11-15T18:46:01.602Z,193
2022-11-15T18:48:34.817Z,183
2022-11-15T18:51:06.626Z,184
2022-11-15T18:53:37.627Z,197
2022-11-15T18:56:09.531Z,179
2022-11-15T18:58:39.046Z,184
2022-11-15T19:01:12.599Z,202
2022-11-15T19:03:48.311Z,194
2022-11-15T19:06:18.089Z,195
2022-11-15T19:08:48.049Z,195
2022-11-15T19:11:31.669Z,203
2022-11-15T19:14:04.402Z,178
2022-11-15T19:16:36.550Z,185
2022-11-15T19:19:11.029Z,200
2022-11-15T19:21:43.758Z,192
2022-11-15T19:24:17.810Z,217
2022-11-15T19:26:49.701Z,216
2022-11-15T19:29:27.649Z,216
2022-11-15T19:32:03.793Z,216
2022-11-15T19:34:49.785Z,209
2022-11-15T19:37:20.988Z,217
2022-11-15T19:39:58.925Z,209
2022-11-15T19:42:31.669Z,213
2022-11-15T19:45:01.950Z,214
2022-11-15T19:47:36.623Z,203
2022-11-15T19:50:12.073Z,188
2022-11-15T19:52:49.016Z,208
2022-11-15T19:55:21.388Z,214
2022-11-15T19:57:53.535Z,190
2022-11-15T20:00:25.881Z,199
2022-11-15T20:02:57.148Z,190
2022-11-15T20:05:29.010Z,188
2022-11-15T20:08:00.863Z,176
2022-11-15T20:10:33.852Z,176
2022-11-15T20:13:03.612Z,192
2022-11-15T20:15:34.863Z,189
2022-11-15T20:18:10.611Z,167
2022-11-15T20:20:42.110Z,168
2022-11-15T20:23:13.856Z,170
2022-11-15T20:25:48.105Z,162
2022-11-15T20:28:22.939Z,178
2022-11-15T20:30:54.316Z,166
2022-11-15T20:33:25.629Z,153
2022-11-15T20:35:56.866Z,161
2022-11-15T20:38:29.010Z,153
2022-11-15T20:41:01.246Z,145
2022-11-15T20:43:30.910Z,153
2022-11-15T20:46:03.967Z,137
2022-11-15T20:48:35.501Z,132
2022-11-15T20:51:06.980Z,141
2022-11-15T20:53:40.269Z,145
2022-11-15T20:56:12.755Z,150
2022-11-15T20:58:44.652Z,140
2022-11-15T21:01:15.862Z,145
2022-11-15T21:03:52.108Z,152
2022-11-15T21:06:23.824Z,156
2022-11-15T21:09:06.805Z,158
2022-11-15T21:11:37.697Z,162
2022-11-15T21:14:12.180Z,156
2022-11-15T21:16:45.511Z,168
2022-11-15T21:19:17.508Z,170
2022-11-15T21:21:49.727Z,176
2022-11-15T21:24:20.560Z,151
2022-11-15T21:26:51.676Z,162
2022-11-15T21:29:21.605Z,161
2022-11-15T21:34:39.926Z,182
2022-11-15T21:37:11.908Z,169
2022-11-15T21:39:46.580Z,184
2022-11-15T21:42:16.001Z,190
2022-11-15T21:44:48.060Z,179
2022-11-15T21:47:20.307Z,171
2022-11-15T21:49:54.647Z,175
2022-11-15T21:52:25.591Z,181
2022-11-15T21:55:04.068Z,185
2022-11-15T21:57:37.464Z,183
2022-11-15T22:00:08.519Z,184
2022-11-15T22:02:39.747Z,182
2022-11-15T22:05:12.469Z,176
2022-11-15T22:07:46.032Z,184
2022-11-15T22:10:15.260Z,196
2022-11-15T22:12:47.100Z,193
2022-11-15T22:15:18.917Z,204
2022-11-15T22:17:50.060Z,194
2022-11-15T22:22:54.801Z,197
2022-11-15T22:25:25.571Z,194
2022-11-15T22:27:57.253Z,199
2022-11-15T22:30:29.886Z,200
2022-11-15T22:33:10.710Z,196
2022-11-15T22:35:41.707Z,201
2022-11-15T22:38:12.212Z,196
2022-11-15T22:40:45.748Z,190
2022-11-15T22:43:17.511Z,206
2022-11-15T22:45:48.764Z,192
2022-11-15T22:48:21.041Z,200
2022-11-15T22:50:51.885Z,199
2022-11-15T22:53:22.863Z,203
2022-11-15T22:55:54.888Z,203
2022-11-15T22:58:25.565Z,204
2022-11-15T23:00:59.452Z,207
2022-11-15T23:03:30.864Z,194
2022-11-15T23:06:04.077Z,205
2022-11-15T23:08:34.806Z,195
2022-11-15T23:11:06.169Z,215
2022-11-15T23:13:38.779Z,190
2022-11-15T23:16:09.240Z,201
2022-11-15T23:18:39.279Z,199
2022-11-15T23:21:09.443Z,214
2022-11-15T23:23:48.104Z,211
2022-11-15T23:26:20.801Z,212
2022-11-15T23:28:50.847Z,193
2022-11-15T23:31:28.456Z,184
2022-11-15T23:34:00.791Z,195
2022-11-15T23:36:34.146Z,183
2022-11-15T23:39:06.394Z,186
2022-11-15T23:41:35.607Z,180
2022-11-15T23:44:06.203Z,184
2022-11-15T23:46:36.350Z,171
2022-11-15T23:49:07.150Z,191
2022-11-15T23:51:37.901Z,188
2022-11-15T23:54:14.779Z,178
2022-11-15T23:56:46.760Z,187
2022-11-15T23:59:16.952Z,191
